createdAt,value
2022-08-26T00:01:31.957Z,93.13
2022-08-26T00:03:59.013Z,93.87
2022-08-26T00:06:26.249Z,93.86
2022-08-26T00:08:53.957Z,94.35
2022-08-26T00:11:26.369Z,94.63
2022-08-26T00:13:57.617Z,95.08
2022-08-26T00:16:26.771Z,95.29
2022-08-26T00:18:54.133Z,95.41
2022-08-26T00:21:20.634Z,96.24
2022-08-26T00:23:47.809Z,96.83
2022-08-26T00:26:14.632Z,97.48
2022-08-26T00:28:41.477Z,98.03
2022-08-26T00:31:11.071Z,98.42
2022-08-26T00:33:38.820Z,98.70
2022-08-26T00:36:06.517Z,98.49
2022-08-26T00:38:33.323Z,98.04
2022-08-26T00:41:00.377Z,97.79
2022-08-26T00:43:26.980Z,97.76
2022-08-26T00:46:04.770Z,98.41
2022-08-26T00:48:33.817Z,97.93
2022-08-26T00:51:11.780Z,98.32
2022-08-26T00:53:43.356Z,97.92
2022-08-26T00:56:17.715Z,98.04
2022-08-26T00:58:45.502Z,98.02
2022-08-26T01:01:12.163Z,97.94
2022-08-26T01:03:40.503Z,97.99
2022-08-26T01:06:11.479Z,98.35
2022-08-26T01:08:40.379Z,98.42
2022-08-26T01:11:08.074Z,98.63
2022-08-26T01:13:36.894Z,98.67
2022-08-26T01:16:06.175Z,99.24
2022-08-26T01:18:33.528Z,99.54
2022-08-26T01:21:06.257Z,99.40
2022-08-26T01:23:40.960Z,99.47
2022-08-26T01:26:20.054Z,100.00
2022-08-26T01:28:51.594Z,100.00
2022-08-26T01:31:22.250Z,100.00
2022-08-26T01:34:21.109Z,100.00
2022-08-26T01:36:51.661Z,100.00
2022-08-26T01:39:18.603Z,100.00
2022-08-26T01:41:46.344Z,100.00
2022-08-26T01:44:21.991Z,100.00
2022-08-26T01:46:52.215Z,100.00
2022-08-26T01:49:22.392Z,100.00
2022-08-26T01:51:51.407Z,100.00
2022-08-26T01:54:20.481Z,100.00
2022-08-26T01:56:49.731Z,100.00
2022-08-26T01:59:18.480Z,100.00
2022-08-26T02:01:47.672Z,100.00
2022-08-26T02:04:46.562Z,100.00
2022-08-26T02:07:14.200Z,100.00
2022-08-26T02:09:41.760Z,100.00
2022-08-26T02:12:10.617Z,100.00
2022-08-26T02:14:43.827Z,100.00
2022-08-26T02:17:11.295Z,100.00
2022-08-26T02:19:41.679Z,100.00
2022-08-26T02:22:14.925Z,100.00
2022-08-26T02:24:59.292Z,100.00
2022-08-26T02:27:32.820Z,100.00
2022-08-26T02:30:14.120Z,100.00
2022-08-26T02:32:44.045Z,100.00
2022-08-26T02:35:12.861Z,100.00
2022-08-26T02:37:39.503Z,100.00
2022-08-26T02:40:10.687Z,100.00
2022-08-26T02:42:37.666Z,100.00
2022-08-26T02:45:05.433Z,100.00
2022-08-26T02:47:34.371Z,100.00
2022-08-26T02:50:01.781Z,100.00
2022-08-26T02:52:28.311Z,100.00
2022-08-26T02:54:54.927Z,100.00
2022-08-26T02:57:22.206Z,100.00
2022-08-26T02:59:49.338Z,100.00
2022-08-26T03:02:16.768Z,100.00
2022-08-26T03:04:57.377Z,100.00
2022-08-26T03:07:27.308Z,100.00
2022-08-26T03:09:53.855Z,100.00
2022-08-26T03:12:20.400Z,100.00
2022-08-26T03:14:47.934Z,100.00
2022-08-26T03:17:14.479Z,100.00
2022-08-26T03:19:40.928Z,100.00
2022-08-26T03:22:07.797Z,100.00
2022-08-26T03:24:34.407Z,100.00
2022-08-26T03:27:01.960Z,100.00
2022-08-26T03:29:51.763Z,100.00
2022-08-26T03:32:20.661Z,100.00
2022-08-26T03:34:47.093Z,100.00
2022-08-26T03:37:13.524Z,100.00
2022-08-26T03:39:40.057Z,100.00
2022-08-26T03:42:07.314Z,100.00
2022-08-26T03:44:34.061Z,100.00
2022-08-26T03:47:00.591Z,100.00
2022-08-26T03:49:28.831Z,100.00
2022-08-26T03:51:55.493Z,100.00
2022-08-26T03:54:21.926Z,100.00
2022-08-26T03:56:48.355Z,100.00
2022-08-26T03:59:14.834Z,100.00
2022-08-26T04:01:42.075Z,100.00
2022-08-26T04:04:08.616Z,100.00
2022-08-26T04:06:38.425Z,100.00
2022-08-26T04:09:08.511Z,100.00
2022-08-26T04:11:38.245Z,100.00
2022-08-26T04:14:09.512Z,100.00
2022-08-26T04:16:36.523Z,100.00
2022-08-26T04:19:03.306Z,100.00
2022-08-26T04:21:29.801Z,100.00
2022-08-26T04:23:56.273Z,100.00
2022-08-26T04:26:25.354Z,100.00
2022-08-26T04:28:55.285Z,100.00
2022-08-26T04:31:22.249Z,100.00
2022-08-26T04:33:50.206Z,100.00
2022-08-26T04:36:17.653Z,100.00
2022-08-26T04:38:47.293Z,100.00
2022-08-26T04:41:15.678Z,100.00
2022-08-26T04:43:45.465Z,100.00
2022-08-26T04:46:13.920Z,100.00
2022-08-26T04:48:41.108Z,100.00
2022-08-26T04:51:09.694Z,100.00
2022-08-26T04:53:37.601Z,100.00
2022-08-26T04:56:04.880Z,100.00
2022-08-26T04:58:31.848Z,100.00
2022-08-26T05:00:58.533Z,100.00
2022-08-26T05:03:27.353Z,100.00
2022-08-26T05:05:57.968Z,100.00
2022-08-26T05:08:24.480Z,100.00
2022-08-26T05:10:57.113Z,100.00
2022-08-26T05:13:28.914Z,100.00
2022-08-26T05:15:55.751Z,100.00
2022-08-26T05:18:29.945Z,100.00
2022-08-26T05:20:57.390Z,100.00
2022-08-26T05:23:24.648Z,100.00
2022-08-26T05:25:58.364Z,100.00
2022-08-26T05:28:26.938Z,100.00
2022-08-26T05:30:55.486Z,100.00
2022-08-26T05:33:22.406Z,100.00
2022-08-26T05:35:49.171Z,100.00
2022-08-26T05:38:18.677Z,100.00
2022-08-26T05:40:49.053Z,100.00
2022-08-26T05:43:20.164Z,100.00
2022-08-26T05:45:50.273Z,100.00
2022-08-26T05:48:22.777Z,100.00
2022-08-26T05:50:54.197Z,100.00
2022-08-26T05:53:22.192Z,100.00
2022-08-26T05:55:53.131Z,100.00
2022-08-26T05:58:21.873Z,100.00
2022-08-26T06:01:19.535Z,100.00
2022-08-26T06:03:51.696Z,100.00
2022-08-26T06:06:27.603Z,100.00
2022-08-26T06:08:57.883Z,100.00
2022-08-26T06:11:25.456Z,100.00
2022-08-26T06:13:53.574Z,100.00
2022-08-26T06:16:23.310Z,100.00
2022-08-26T06:18:52.628Z,100.00
2022-08-26T06:21:25.408Z,100.00
2022-08-26T06:24:13.176Z,100.00
2022-08-26T06:26:42.666Z,100.00
2022-08-26T06:29:09.762Z,100.00
2022-08-26T06:31:37.156Z,100.00
2022-08-26T06:34:10.592Z,100.00
2022-08-26T06:36:39.341Z,100.00
2022-08-26T06:39:10.062Z,100.00
2022-08-26T06:41:43.172Z,100.00
2022-08-26T06:44:09.911Z,100.00
2022-08-26T06:46:36.526Z,100.00
2022-08-26T06:49:03.534Z,100.00
2022-08-26T06:51:32.674Z,100.00
2022-08-26T06:54:02.406Z,100.00
2022-08-26T06:56:35.270Z,100.00
2022-08-26T06:59:02.615Z,100.00
2022-08-26T07:01:31.907Z,100.00
2022-08-26T07:04:00.228Z,100.00
2022-08-26T07:06:28.200Z,100.00
2022-08-26T07:09:03.366Z,100.00
2022-08-26T07:11:31.233Z,100.00
2022-08-26T07:13:58.960Z,100.00
2022-08-26T07:16:28.807Z,100.00
2022-08-26T07:18:56.869Z,100.00
2022-08-26T07:21:24.547Z,100.00
2022-08-26T07:23:54.626Z,100.00
2022-08-26T07:26:27.033Z,100.00
2022-08-26T07:28:56.155Z,100.00
2022-08-26T07:31:25.268Z,100.00
2022-08-26T07:33:52.767Z,100.00
2022-08-26T07:36:20.763Z,100.00
2022-08-26T07:38:48.186Z,100.00
2022-08-26T07:41:17.398Z,100.00
2022-08-26T07:43:44.390Z,100.00
2022-08-26T07:46:18.316Z,100.00
2022-08-26T07:48:48.779Z,100.00
2022-08-26T07:51:20.743Z,100.00
2022-08-26T07:53:48.124Z,100.00
2022-08-26T07:56:19.576Z,100.00
2022-08-26T07:58:50.523Z,100.00
2022-08-26T08:01:18.359Z,100.00
2022-08-26T08:03:45.253Z,100.00
2022-08-26T08:06:11.896Z,100.00
2022-08-26T08:08:40.728Z,100.00
2022-08-26T08:11:07.463Z,100.00
2022-08-26T08:13:38.672Z,100.00
2022-08-26T08:16:06.094Z,100.00
2022-08-26T08:18:32.555Z,100.00
2022-08-26T08:21:20.996Z,100.00
2022-08-26T08:23:48.214Z,100.00
2022-08-26T08:26:15.359Z,100.00
2022-08-26T08:28:43.475Z,100.00
2022-08-26T08:31:54.519Z,100.00
2022-08-26T08:34:12.277Z,100.00
2022-08-26T08:36:38.739Z,100.00
2022-08-26T08:39:06.454Z,100.00
2022-08-26T08:41:38.868Z,100.00
2022-08-26T08:44:13.077Z,100.00
2022-08-26T08:46:42.393Z,100.00
2022-08-26T08:49:10.307Z,100.00
2022-08-26T08:51:54.232Z,100.00
2022-08-26T08:54:22.937Z,100.00
2022-08-26T08:56:55.312Z,100.00
2022-08-26T08:59:27.533Z,100.00
2022-08-26T09:02:20.887Z,100.00
2022-08-26T09:05:07.857Z,100.00
2022-08-26T09:07:38.821Z,100.00
2022-08-26T09:10:26.283Z,100.00
2022-08-26T09:12:52.822Z,100.00
2022-08-26T09:15:50.523Z,100.00
2022-08-26T09:18:29.145Z,100.00
2022-08-26T09:20:57.147Z,100.00
2022-08-26T09:23:23.652Z,100.00
2022-08-26T09:25:59.897Z,100.00
2022-08-26T09:28:30.306Z,100.00
2022-08-26T09:31:11.448Z,100.00
2022-08-26T09:33:40.071Z,100.00
2022-08-26T09:36:58.776Z,100.00
2022-08-26T09:39:27.987Z,100.00
2022-08-26T09:42:14.331Z,100.00
2022-08-26T09:44:58.144Z,100.00
2022-08-26T09:47:31.842Z,100.00
2022-08-26T09:50:14.370Z,100.00
2022-08-26T09:52:42.589Z,100.00
2022-08-26T09:55:09.315Z,100.00
2022-08-26T09:57:45.653Z,100.00
2022-08-26T10:00:27.151Z,100.00
2022-08-26T10:02:57.844Z,100.00
2022-08-26T10:06:01.455Z,100.00
2022-08-26T10:08:38.683Z,100.00
2022-08-26T10:11:38.339Z,100.00
2022-08-26T10:14:53.421Z,100.00
2022-08-26T10:17:30.876Z,100.00
2022-08-26T10:20:05.496Z,100.00
2022-08-26T10:23:08.451Z,100.00
2022-08-26T10:25:47.224Z,100.00
2022-08-26T10:28:31.774Z,100.00
2022-08-26T10:31:04.700Z,100.00
2022-08-26T10:33:31.313Z,100.00
2022-08-26T10:36:01.801Z,100.00
2022-08-26T10:38:40.216Z,100.00
2022-08-26T10:41:16.970Z,100.00
2022-08-26T10:43:58.073Z,100.00
2022-08-26T10:46:32.293Z,100.00
2022-08-26T10:49:06.551Z,100.00
2022-08-26T10:51:38.533Z,100.00
2022-08-26T10:54:09.217Z,100.00
2022-08-26T10:56:49.854Z,100.00
2022-08-26T10:59:39.912Z,100.00
2022-08-26T11:02:28.737Z,100.00
2022-08-26T11:04:58.824Z,100.00
2022-08-26T11:07:43.592Z,100.00
2022-08-26T11:10:17.159Z,100.00
2022-08-26T11:12:45.301Z,100.00
2022-08-26T11:15:24.575Z,100.00
2022-08-26T11:17:51.340Z,100.00
2022-08-26T11:20:29.866Z,100.00
2022-08-26T11:23:16.509Z,100.00
2022-08-26T11:25:58.913Z,100.00
2022-08-26T11:28:44.661Z,100.00
2022-08-26T11:31:33.771Z,100.00
2022-08-26T11:34:07.107Z,100.00
2022-08-26T11:36:47.747Z,100.00
2022-08-26T11:39:19.554Z,100.00
2022-08-26T11:41:49.364Z,100.00
2022-08-26T11:44:24.167Z,100.00
2022-08-26T11:47:11.543Z,100.00
2022-08-26T11:49:39.120Z,100.00
2022-08-26T11:52:20.735Z,100.00
2022-08-26T11:55:01.313Z,100.00
2022-08-26T11:57:28.739Z,100.00
2022-08-26T11:59:56.503Z,100.00
2022-08-26T12:02:23.341Z,100.00
2022-08-26T12:04:51.837Z,100.00
2022-08-26T12:07:24.412Z,100.00
2022-08-26T12:09:57.543Z,100.00
2022-08-26T12:12:36.161Z,100.00
2022-08-26T12:15:22.660Z,100.00
2022-08-26T12:17:54.373Z,100.00
2022-08-26T12:20:54.374Z,100.00
2022-08-26T12:23:31.039Z,100.00
2022-08-26T12:26:10.471Z,100.00
2022-08-26T12:28:45.801Z,100.00
2022-08-26T12:31:20.929Z,100.00
2022-08-26T12:33:49.485Z,100.00
2022-08-26T12:36:31.489Z,100.00
2022-08-26T12:39:07.199Z,100.00
2022-08-26T12:41:42.138Z,100.00
2022-08-26T12:44:09.039Z,100.00
2022-08-26T12:46:35.506Z,100.00
2022-08-26T12:49:02.977Z,100.00
2022-08-26T12:51:32.372Z,100.00
2022-08-26T12:53:59.634Z,100.00
2022-08-26T12:56:38.750Z,100.00
2022-08-26T12:59:24.981Z,100.00
2022-08-26T13:01:52.662Z,100.00
2022-08-26T13:04:39.840Z,100.00
2022-08-26T13:07:18.433Z,100.00
2022-08-26T13:09:44.838Z,100.00
2022-08-26T13:12:14.198Z,100.00
2022-08-26T13:14:40.803Z,100.00
2022-08-26T13:17:07.372Z,100.00
2022-08-26T13:19:33.776Z,100.00
2022-08-26T13:22:00.683Z,100.00
2022-08-26T13:24:36.909Z,100.00
2022-08-26T13:27:07.429Z,100.00
2022-08-26T13:29:34.233Z,100.00
2022-08-26T13:32:01.546Z,100.00
2022-08-26T13:34:29.722Z,100.00
2022-08-26T13:36:56.528Z,100.00
2022-08-26T13:39:23.900Z,100.00
2022-08-26T13:41:51.429Z,100.00
2022-08-26T13:44:18.937Z,100.00
2022-08-26T13:49:16.992Z,100.00
2022-08-26T13:51:43.444Z,100.00
2022-08-26T13:54:09.932Z,99.69
2022-08-26T13:56:36.664Z,98.07
2022-08-26T13:59:03.988Z,94.29
2022-08-26T14:01:31.714Z,93.26
2022-08-26T14:03:58.739Z,91.90
2022-08-26T14:06:25.552Z,91.61
2022-08-26T14:08:52.061Z,91.25
2022-08-26T14:11:18.897Z,90.47
2022-08-26T14:13:45.438Z,89.66
2022-08-26T14:16:26.775Z,87.88
2022-08-26T14:18:53.953Z,89.65
2022-08-26T14:21:21.260Z,89.42
2022-08-26T14:23:47.885Z,89.76
2022-08-26T14:26:21.433Z,90.68
2022-08-26T14:28:55.208Z,91.59
2022-08-26T14:31:24.424Z,92.62
2022-08-26T14:33:50.956Z,93.11
2022-08-26T14:36:29.440Z,94.38
2022-08-26T14:38:58.294Z,95.91
2022-08-26T14:41:25.392Z,97.00
2022-08-26T14:44:00.023Z,98.93
2022-08-26T14:46:30.279Z,98.79
2022-08-26T14:49:02.128Z,99.84
2022-08-26T14:51:30.112Z,100.00
2022-08-26T14:54:14.630Z,100.00
2022-08-26T14:56:53.975Z,100.00
2022-08-26T14:59:31.966Z,100.00
2022-08-26T15:01:59.165Z,100.00
2022-08-26T15:04:26.070Z,100.00
2022-08-26T15:06:57.300Z,100.00
2022-08-26T15:09:23.825Z,100.00
2022-08-26T15:11:50.767Z,100.00
2022-08-26T15:14:19.499Z,100.00
2022-08-26T15:16:55.790Z,100.00
2022-08-26T15:19:24.178Z,100.00
2022-08-26T15:21:51.434Z,100.00
2022-08-26T15:24:21.201Z,100.00
2022-08-26T15:26:48.666Z,100.00
2022-08-26T15:29:15.224Z,100.00
2022-08-26T15:31:42.092Z,100.00
2022-08-26T15:34:14.624Z,100.00
2022-08-26T15:36:44.790Z,100.00
2022-08-26T15:39:11.882Z,100.00
2022-08-26T15:41:38.380Z,100.00
2022-08-26T15:44:06.762Z,100.00
2022-08-26T15:46:34.355Z,100.00
2022-08-26T15:49:02.499Z,100.00
2022-08-26T15:51:31.910Z,100.00
2022-08-26T15:53:59.240Z,100.00
2022-08-26T15:56:27.767Z,100.00
2022-08-26T15:58:56.063Z,100.00
2022-08-26T16:01:27.456Z,100.00
2022-08-26T16:03:55.036Z,100.00
2022-08-26T16:06:24.818Z,100.00
2022-08-26T16:08:51.692Z,100.00
2022-08-26T16:11:21.331Z,100.00
2022-08-26T16:13:47.901Z,100.00
2022-08-26T16:16:15.084Z,100.00
2022-08-26T16:18:42.247Z,100.00
2022-08-26T16:21:13.579Z,100.00
2022-08-26T16:23:40.518Z,100.00
2022-08-26T16:26:14.249Z,100.00
2022-08-26T16:28:40.706Z,100.00
2022-08-26T16:31:07.285Z,100.00
2022-08-26T16:33:33.829Z,100.00
2022-08-26T16:36:00.303Z,100.00
2022-08-26T16:38:26.770Z,100.00
2022-08-26T16:40:53.243Z,100.00
2022-08-26T16:43:19.691Z,100.00
2022-08-26T16:45:46.190Z,100.00
2022-08-26T16:48:12.636Z,100.00
2022-08-26T16:50:40.703Z,100.00
2022-08-26T16:53:08.031Z,100.00
2022-08-26T16:55:35.841Z,100.00
2022-08-26T16:58:03.051Z,100.00
2022-08-26T17:00:32.279Z,100.00
2022-08-26T17:03:00.754Z,100.00
2022-08-26T17:05:28.461Z,100.00
2022-08-26T17:07:56.712Z,100.00
2022-08-26T17:10:24.752Z,100.00
2022-08-26T17:12:51.502Z,100.00
2022-08-26T17:15:18.463Z,100.00
2022-08-26T17:17:45.023Z,100.00
2022-08-26T17:20:15.588Z,100.00
2022-08-26T17:22:45.717Z,100.00
2022-08-26T17:25:24.413Z,100.00
2022-08-26T17:27:50.914Z,100.00
2022-08-26T17:30:17.966Z,100.00
2022-08-26T17:32:44.983Z,100.00
2022-08-26T17:35:13.261Z,100.00
2022-08-26T17:37:40.055Z,100.00
2022-08-26T17:40:11.894Z,100.00
2022-08-26T17:42:39.049Z,100.00
2022-08-26T17:45:06.510Z,100.00
2022-08-26T17:47:33.926Z,100.00
2022-08-26T17:50:01.323Z,100.00
2022-08-26T17:52:28.697Z,100.00
2022-08-26T17:54:58.151Z,100.00
2022-08-26T17:57:25.247Z,100.00
2022-08-26T17:59:52.762Z,100.00
2022-08-26T18:02:21.104Z,100.00
2022-08-26T18:04:48.142Z,100.00
2022-08-26T18:07:15.698Z,100.00
2022-08-26T18:09:42.433Z,100.00
2022-08-26T18:12:10.199Z,100.00
2022-08-26T18:14:36.905Z,100.00
2022-08-26T18:17:03.684Z,100.00
2022-08-26T18:19:31.340Z,100.00
2022-08-26T18:21:58.300Z,100.00
2022-08-26T18:24:24.799Z,100.00
2022-08-26T18:26:51.232Z,100.00
2022-08-26T18:29:19.531Z,100.00
2022-08-26T18:31:46.658Z,100.00
2022-08-26T18:34:15.358Z,100.00
2022-08-26T18:36:42.998Z,100.00
2022-08-26T18:39:10.985Z,100.00
2022-08-26T18:41:46.646Z,100.00
2022-08-26T18:44:14.872Z,100.00
2022-08-26T18:46:41.935Z,100.00
2022-08-26T18:49:09.637Z,100.00
2022-08-26T18:51:37.812Z,100.00
2022-08-26T18:54:06.214Z,100.00
2022-08-26T18:56:35.440Z,100.00
2022-08-26T18:59:03.037Z,100.00
2022-08-26T19:01:30.743Z,100.00
2022-08-26T19:03:59.390Z,100.00
2022-08-26T19:06:27.251Z,100.00
2022-08-26T19:08:53.970Z,100.00
2022-08-26T19:11:31.475Z,100.00
2022-08-26T19:13:59.897Z,100.00
2022-08-26T19:16:27.011Z,100.00
2022-08-26T19:18:54.798Z,100.00
2022-08-26T19:21:22.813Z,100.00
2022-08-26T19:23:50.143Z,100.00
2022-08-26T19:26:17.240Z,100.00
2022-08-26T19:28:43.703Z,100.00
2022-08-26T19:31:11.715Z,100.00
2022-08-26T19:33:43.070Z,100.00
2022-08-26T19:36:15.609Z,100.00
2022-08-26T19:38:42.874Z,100.00
2022-08-26T19:41:18.152Z,100.00
2022-08-26T19:43:46.240Z,100.00
2022-08-26T19:46:19.484Z,100.00
2022-08-26T19:48:47.179Z,100.00
2022-08-26T19:51:19.330Z,100.00
2022-08-26T19:53:47.734Z,100.00
2022-08-26T19:56:14.851Z,100.00
2022-08-26T19:58:41.888Z,100.00
2022-08-26T20:01:09.023Z,100.00
2022-08-26T20:03:36.037Z,100.00
2022-08-26T20:06:05.127Z,100.00
2022-08-26T20:08:32.507Z,100.00
2022-08-26T20:11:08.971Z,100.00
2022-08-26T20:13:36.358Z,100.00
2022-08-26T20:16:03.073Z,100.00
2022-08-26T20:18:48.010Z,100.00
2022-08-26T20:21:27.342Z,100.00
2022-08-26T20:23:59.304Z,100.00
2022-08-26T20:26:31.601Z,100.00
2022-08-26T20:28:58.795Z,100.00
2022-08-26T20:31:26.507Z,100.00
2022-08-26T20:33:53.567Z,100.00
2022-08-26T20:36:22.113Z,100.00
2022-08-26T20:38:49.623Z,100.00
2022-08-26T20:41:16.924Z,100.00
2022-08-26T20:43:43.898Z,100.00
2022-08-26T20:46:17.279Z,100.00
2022-08-26T20:48:46.789Z,100.00
2022-08-26T20:51:13.271Z,100.00
2022-08-26T20:53:39.868Z,100.00
2022-08-26T20:56:08.587Z,100.00
2022-08-26T20:58:35.715Z,100.00
2022-08-26T21:01:07.310Z,100.00
2022-08-26T21:03:34.793Z,100.00
2022-08-26T21:06:03.108Z,100.00
2022-08-26T21:08:29.590Z,100.00
2022-08-26T21:10:56.043Z,100.00
2022-08-26T21:13:22.711Z,100.00
2022-08-26T21:15:49.182Z,100.00
2022-08-26T21:18:15.629Z,100.00
2022-08-26T21:20:42.107Z,100.00
2022-08-26T21:23:08.522Z,100.00
2022-08-26T21:25:34.950Z,100.00
2022-08-26T21:28:01.361Z,100.00
2022-08-26T21:30:28.068Z,100.00
2022-08-26T21:32:54.486Z,100.00
2022-08-26T21:35:21.207Z,100.00
2022-08-26T21:37:47.674Z,100.00
2022-08-26T21:40:14.221Z,100.00
2022-08-26T21:42:40.693Z,100.00
2022-08-26T21:45:07.825Z,100.00
2022-08-26T21:47:34.333Z,100.00
2022-08-26T21:50:00.802Z,100.00
2022-08-26T21:52:27.401Z,100.00
2022-08-26T21:55:01.491Z,100.00
2022-08-26T21:57:28.799Z,100.00
2022-08-26T21:59:55.691Z,100.00
2022-08-26T22:02:22.588Z,100.00
2022-08-26T22:04:49.429Z,100.00
2022-08-26T22:07:17.917Z,100.00
2022-08-26T22:09:44.797Z,100.00
2022-08-26T22:12:12.332Z,100.00
2022-08-26T22:14:39.683Z,100.00
2022-08-26T22:17:06.518Z,100.00
2022-08-26T22:19:34.104Z,100.00
2022-08-26T22:22:12.989Z,100.00
2022-08-26T22:24:39.939Z,100.00
2022-08-26T22:27:06.390Z,100.00
2022-08-26T22:29:33.201Z,100.00
2022-08-26T22:31:59.987Z,100.00
2022-08-26T22:34:26.517Z,100.00
2022-08-26T22:36:52.976Z,100.00
2022-08-26T22:39:22.393Z,100.00
2022-08-26T22:41:49.577Z,100.00
2022-08-26T22:44:17.108Z,100.00
2022-08-26T22:46:45.102Z,100.00
2022-08-26T22:49:16.268Z,100.00
2022-08-26T22:51:46.085Z,100.00
2022-08-26T22:54:13.850Z,100.00
2022-08-26T22:56:40.788Z,100.00
2022-08-26T22:59:08.087Z,100.00
2022-08-26T23:01:36.810Z,100.00
2022-08-26T23:04:04.626Z,100.00
2022-08-26T23:06:31.225Z,100.00
2022-08-26T23:08:57.696Z,100.00
2022-08-26T23:11:24.196Z,100.00
2022-08-26T23:13:50.654Z,100.00
2022-08-26T23:16:17.144Z,100.00
2022-08-26T23:18:43.598Z,100.00
2022-08-26T23:21:10.658Z,100.00
2022-08-26T23:23:38.280Z,100.00
2022-08-26T23:26:06.957Z,100.00
2022-08-26T23:28:34.880Z,100.00
2022-08-26T23:31:01.774Z,100.00
2022-08-26T23:33:48.223Z,100.00
2022-08-26T23:36:17.843Z,100.00
2022-08-26T23:38:45.018Z,100.00
2022-08-26T23:41:19.091Z,100.00
2022-08-26T23:43:45.566Z,100.00
2022-08-26T23:46:12.096Z,100.00
2022-08-26T23:48:38.601Z,100.00
2022-08-26T23:51:23.997Z,100.00
2022-08-26T23:53:50.744Z,100.00
2022-08-26T23:56:18.275Z,100.00
2022-08-26T23:58:45.159Z,100.00
